Time;durP1;ratioP1;P1;durP2;ratioP2;P2;SDS_P1;SDS_P2;PMS_P1;PMS_P2;Temp;Humidity;BMP_temperature;BMP_pressure;BME280_temperature;BME280_humidity;BME280_pressure;Samples;Min_cycle;Max_cycle;Signal;HPM_P1;HPM_P2
2023/05/25 00:01:43;;;;;;;;;;;9.10;99.90;;;;;;5085871;28;20026;-81
2023/05/25 00:04:09;;;;;;;;;;;9.00;99.90;;;;;;5085435;28;20610;-81
2023/05/25 00:06:40;;;;;;;;;;;8.80;99.90;;;;;;5085042;28;19927;-81
2023/05/25 00:09:06;;;;;;;;;;;8.80;99.90;;;;;;5084740;28;19924;-81
2023/05/25 00:11:31;;;;;;;;;;;8.80;99.90;;;;;;5082819;28;20556;-81
2023/05/25 00:13:57;;;;;;;;;;;8.80;99.90;;;;;;5115699;27;19958;-82
2023/05/25 00:16:22;;;;;;;;;;;8.70;99.90;;;;;;5084124;28;20578;-82
2023/05/25 00:18:48;;;;;;;;;;;8.70;99.90;;;;;;5083213;28;20007;-81
2023/05/25 00:21:14;;;;;;;;;;;8.60;99.90;;;;;;5084798;28;19932;-81
2023/05/25 00:23:40;;;;;;;;;;;8.70;99.90;;;;;;5086730;28;19971;-82
2023/05/25 00:26:05;;;;;;;;;;;8.60;99.90;;;;;;5083466;28;20030;-81
2023/05/25 00:28:31;;;;;;;;;;;8.60;99.90;;;;;;5084868;28;19924;-82
2023/05/25 00:30:56;;;;;;;;;;;8.50;99.90;;;;;;5083136;28;20332;-81
2023/05/25 00:33:22;;;;;;;;;;;8.60;99.90;;;;;;5086119;28;19970;-81
2023/05/25 00:35:48;;;;;;;;;;;8.60;99.90;;;;;;5084785;28;19927;-82
2023/05/25 00:38:15;;;;;;;;;;;8.60;99.90;;;;;;5084191;28;19928;-82
2023/05/25 00:40:41;;;;;;;;;;;8.50;99.90;;;;;;5086552;28;19928;-81
2023/05/25 00:43:10;;;;;;;;;;;8.60;99.90;;;;;;5083388;28;20412;-81
2023/05/25 00:45:36;;;;;;;;;;;8.60;99.90;;;;;;5084414;28;20609;-81
2023/05/25 00:48:05;;;;;;;;;;;8.50;99.90;;;;;;5084126;28;19935;-81
2023/05/25 00:50:41;;;;;;;;;;;8.50;99.90;;;;;;5115765;27;20038;-82
2023/05/25 00:53:07;;;;;;;;;;;8.40;99.90;;;;;;5084236;28;19929;-82
2023/05/25 00:55:36;;;;;;;;;;;8.40;99.90;;;;;;5083445;28;19928;-82
2023/05/25 00:58:02;;;;;;;;;;;8.40;99.90;;;;;;5083422;28;19997;-82
2023/05/25 01:00:29;;;;;;;;;;;8.50;99.90;;;;;;5083456;28;19994;-82
2023/05/25 01:02:58;;;;;;;;;;;8.60;99.90;;;;;;5082995;28;19932;-82
2023/05/25 01:05:27;;;;;;;;;;;8.70;99.90;;;;;;5083901;28;19924;-82
2023/05/25 01:07:55;;;;;;;;;;;8.60;99.90;;;;;;5083574;28;19924;-82
2023/05/25 01:10:23;;;;;;;;;;;8.60;99.90;;;;;;5083165;28;19977;-81
2023/05/25 01:12:49;;;;;;;;;;;8.50;99.90;;;;;;5084538;28;20309;-81
2023/05/25 01:15:15;;;;;;;;;;;8.50;99.90;;;;;;5082041;28;19963;-81
2023/05/25 01:17:41;;;;;;;;;;;8.50;99.90;;;;;;5083629;28;19963;-82
2023/05/25 01:20:06;;;;;;;;;;;8.50;99.90;;;;;;5085654;28;19928;-82
2023/05/25 01:22:50;;;;;;;;;;;8.50;99.90;;;;;;5082631;28;20353;-83
2023/05/25 01:25:21;;;;;;;;;;;8.50;99.90;;;;;;5065737;28;21523;-82
2023/05/25 01:27:53;;;;;;;;;;;8.50;99.90;;;;;;5082121;28;19939;-83
2023/05/25 01:30:21;;;;;;;;;;;8.50;99.90;;;;;;5084166;28;19931;-82
2023/05/25 01:32:47;;;;;;;;;;;8.60;99.90;;;;;;5083221;28;19935;-82
2023/05/25 01:35:13;;;;;;;;;;;8.50;99.90;;;;;;5082210;28;19928;-82
2023/05/25 01:37:44;;;;;;;;;;;8.50;99.90;;;;;;5083395;28;20320;-82
2023/05/25 01:40:12;;;;;;;;;;;8.50;99.90;;;;;;5081716;28;19925;-82
2023/05/25 01:42:37;;;;;;;;;;;8.30;99.90;;;;;;5081583;28;19931;-82
2023/05/25 01:45:03;;;;;;;;;;;8.30;99.90;;;;;;5082938;28;19934;-83
2023/05/25 01:47:38;;;;;;;;;;;8.30;99.90;;;;;;5083335;28;20018;-82
2023/05/25 01:50:06;;;;;;;;;;;8.30;99.90;;;;;;5082899;28;19928;-83
2023/05/25 01:52:35;;;;;;;;;;;8.30;99.90;;;;;;5112269;27;19957;-83
2023/05/25 01:55:04;;;;;;;;;;;8.20;99.90;;;;;;5083514;28;19973;-82
2023/05/25 01:57:30;;;;;;;;;;;8.30;99.90;;;;;;5079285;28;19928;-82
2023/05/25 01:59:59;;;;;;;;;;;8.40;99.90;;;;;;5082837;28;19927;-82
2023/05/25 02:02:25;;;;;;;;;;;8.40;99.90;;;;;;5081809;28;19935;-82
2023/05/25 02:04:52;;;;;;;;;;;8.40;99.90;;;;;;5098228;28;20408;-82
2023/05/25 02:07:17;;;;;;;;;;;8.10;99.90;;;;;;5082439;28;19966;-82
2023/05/25 02:09:43;;;;;;;;;;;8.00;99.90;;;;;;5083879;28;19928;-82
2023/05/25 02:12:08;;;;;;;;;;;8.00;99.90;;;;;;5082683;28;19972;-82
2023/05/25 02:14:34;;;;;;;;;;;8.00;99.90;;;;;;5083337;28;19928;-82
2023/05/25 02:17:00;;;;;;;;;;;8.00;99.90;;;;;;5081398;28;20141;-83
2023/05/25 02:19:27;;;;;;;;;;;8.00;99.90;;;;;;5081954;28;20010;-82
2023/05/25 02:21:52;;;;;;;;;;;8.10;99.90;;;;;;5080540;28;20513;-82
2023/05/25 02:24:18;;;;;;;;;;;8.10;99.90;;;;;;5064615;28;19932;-83
2023/05/25 02:26:43;;;;;;;;;;;8.00;99.90;;;;;;5081961;28;19992;-82
2023/05/25 02:29:10;;;;;;;;;;;8.00;99.90;;;;;;5079276;28;20285;-82
2023/05/25 02:31:36;;;;;;;;;;;8.00;99.90;;;;;;5083266;28;19931;-82
2023/05/25 02:34:01;;;;;;;;;;;7.90;99.90;;;;;;5081399;28;19935;-81
2023/05/25 02:36:27;;;;;;;;;;;7.90;99.90;;;;;;5082797;28;19971;-83
2023/05/25 02:38:53;;;;;;;;;;;8.00;99.90;;;;;;5082928;28;20047;-82
2023/05/25 02:41:23;;;;;;;;;;;8.10;99.90;;;;;;5082006;28;19928;-82
2023/05/25 02:43:48;;;;;;;;;;;8.10;99.90;;;;;;5084369;28;19932;-82
2023/05/25 02:46:14;;;;;;;;;;;8.10;99.90;;;;;;5064153;28;19924;-82
2023/05/25 02:48:40;;;;;;;;;;;8.00;99.90;;;;;;5083037;28;19982;-82
2023/05/25 02:51:06;;;;;;;;;;;7.90;99.90;;;;;;5083732;28;19979;-82
2023/05/25 02:53:32;;;;;;;;;;;8.00;99.90;;;;;;5083176;28;19986;-82
2023/05/25 02:55:57;;;;;;;;;;;8.00;99.90;;;;;;5087968;28;19963;-82
2023/05/25 02:58:23;;;;;;;;;;;8.00;99.90;;;;;;5086412;28;19936;-82
2023/05/25 03:00:49;;;;;;;;;;;7.80;99.90;;;;;;5114449;27;20001;-82
2023/05/25 03:03:14;;;;;;;;;;;7.90;99.90;;;;;;5101348;28;19928;-82
2023/05/25 03:05:40;;;;;;;;;;;7.80;99.90;;;;;;5086164;28;19977;-82
2023/05/25 03:08:06;;;;;;;;;;;7.70;99.90;;;;;;5086404;28;20046;-82
2023/05/25 03:10:31;;;;;;;;;;;7.60;99.90;;;;;;5087364;28;19932;-82
2023/05/25 03:12:57;;;;;;;;;;;7.50;99.90;;;;;;5085833;28;19932;-82
2023/05/25 03:15:22;;;;;;;;;;;7.40;99.90;;;;;;5086819;28;19928;-82
2023/05/25 03:17:48;;;;;;;;;;;7.40;99.90;;;;;;5070432;28;20011;-82
2023/05/25 03:20:15;;;;;;;;;;;7.50;99.90;;;;;;5070121;28;19935;-82
2023/05/25 03:22:42;;;;;;;;;;;7.60;99.90;;;;;;5071400;28;19928;-82
2023/05/25 03:25:08;;;;;;;;;;;7.60;99.90;;;;;;5086699;28;19932;-82
2023/05/25 03:27:33;;;;;;;;;;;7.70;99.90;;;;;;5084630;28;19931;-82
2023/05/25 03:30:00;;;;;;;;;;;7.60;99.90;;;;;;5086051;28;19932;-82
2023/05/25 03:32:25;;;;;;;;;;;7.50;99.90;;;;;;5070019;28;19998;-82
2023/05/25 03:34:51;;;;;;;;;;;7.50;99.90;;;;;;5086958;28;19928;-82
2023/05/25 03:37:16;;;;;;;;;;;7.50;99.90;;;;;;5087136;28;19939;-82
2023/05/25 03:39:42;;;;;;;;;;;7.50;99.90;;;;;;5087334;28;20562;-81
2023/05/25 03:42:08;;;;;;;;;;;7.40;99.90;;;;;;5118952;27;20019;-80
2023/05/25 03:44:33;;;;;;;;;;;7.40;99.90;;;;;;5088090;28;19928;-82
2023/05/25 03:46:59;;;;;;;;;;;7.50;99.90;;;;;;5087100;28;20432;-82
2023/05/25 03:49:24;;;;;;;;;;;7.50;99.90;;;;;;5088100;28;20397;-80
2023/05/25 03:51:50;;;;;;;;;;;7.50;99.90;;;;;;5088742;28;19927;-81
2023/05/25 03:54:16;;;;;;;;;;;7.40;99.90;;;;;;5088011;28;19926;-82
2023/05/25 03:56:41;;;;;;;;;;;7.40;99.90;;;;;;5086521;28;19924;-82
2023/05/25 03:59:07;;;;;;;;;;;7.40;99.90;;;;;;5086836;28;19932;-82
2023/05/25 04:01:32;;;;;;;;;;;7.30;99.90;;;;;;5121070;27;20499;-82
2023/05/25 04:03:58;;;;;;;;;;;7.40;99.90;;;;;;5086227;28;19928;-82
2023/05/25 04:06:28;;;;;;;;;;;7.50;99.90;;;;;;5118658;27;20062;-82
2023/05/25 04:08:54;;;;;;;;;;;7.50;99.90;;;;;;5086969;28;19928;-82
2023/05/25 04:11:21;;;;;;;;;;;7.70;99.90;;;;;;5087835;28;20424;-82
2023/05/25 04:13:47;;;;;;;;;;;7.80;99.90;;;;;;5085929;28;20565;-80
2023/05/25 04:16:12;;;;;;;;;;;7.80;99.90;;;;;;5085506;28;19932;-81
2023/05/25 04:18:38;;;;;;;;;;;8.00;99.90;;;;;;5085104;28;20058;-82
2023/05/25 04:21:03;;;;;;;;;;;8.00;99.90;;;;;;5118336;27;19924;-82
2023/05/25 04:23:29;;;;;;;;;;;8.10;99.90;;;;;;5084457;28;20018;-82
2023/05/25 04:25:55;;;;;;;;;;;8.20;99.90;;;;;;5085324;28;20599;-81
2023/05/25 04:28:21;;;;;;;;;;;8.30;99.90;;;;;;5083987;28;19928;-81
2023/05/25 04:30:47;;;;;;;;;;;8.40;99.90;;;;;;5085781;28;19928;-82
2023/05/25 04:33:13;;;;;;;;;;;8.40;99.90;;;;;;5085822;28;19970;-82
2023/05/25 04:35:39;;;;;;;;;;;8.50;99.90;;;;;;5082677;28;20018;-81
2023/05/25 04:38:06;;;;;;;;;;;8.60;99.90;;;;;;5085741;28;20398;-81
2023/05/25 04:40:32;;;;;;;;;;;8.70;99.90;;;;;;5085428;28;19932;-82
2023/05/25 04:42:58;;;;;;;;;;;8.90;99.90;;;;;;5085671;28;20035;-81
2023/05/25 04:45:23;;;;;;;;;;;9.60;99.90;;;;;;5118122;27;20003;-84
2023/05/25 04:47:49;;;;;;;;;;;11.50;99.90;;;;;;5084939;28;19928;-83
2023/05/25 04:50:15;;;;;;;;;;;12.60;99.90;;;;;;5067902;28;19924;-80
2023/05/25 04:52:40;;;;;;;;;;;13.70;99.90;;;;;;5068581;28;19928;-82
2023/05/25 04:55:06;;;;;;;;;;;14.70;99.90;;;;;;5067605;28;19943;-82
2023/05/25 04:57:32;;;;;;;;;;;15.50;99.90;;;;;;5084241;28;19979;-82
2023/05/25 04:59:57;;;;;;;;;;;16.10;99.90;;;;;;5118637;27;19928;-82
2023/05/25 05:02:23;;;;;;;;;;;16.90;99.90;;;;;;5083947;28;19924;-83
2023/05/25 05:04:52;;;;;;;;;;;17.50;99.90;;;;;;5084749;28;20365;-82
2023/05/25 05:07:19;;;;;;;;;;;18.00;99.90;;;;;;5084141;28;19977;-83
2023/05/25 05:09:45;;;;;;;;;;;18.40;99.90;;;;;;5084995;28;19928;-84
2023/05/25 05:12:11;;;;;;;;;;;18.70;99.90;;;;;;5085106;28;19928;-83
2023/05/25 05:14:36;;;;;;;;;;;19.20;99.90;;;;;;5118597;27;19924;-83
2023/05/25 05:17:02;;;;;;;;;;;19.10;99.90;;;;;;5084294;28;19928;-84
2023/05/25 05:19:27;;;;;;;;;;;19.70;99.90;;;;;;5084653;28;19928;-82
2023/05/25 05:21:53;;;;;;;;;;;20.00;99.90;;;;;;5084953;28;19928;-83
2023/05/25 05:24:18;;;;;;;;;;;20.00;99.90;;;;;;5118357;27;19935;-83
2023/05/25 05:26:44;;;;;;;;;;;20.00;99.90;;;;;;5084449;28;19928;-86
2023/05/25 05:29:10;;;;;;;;;;;19.40;99.90;;;;;;5084723;28;19928;-84
2023/05/25 05:31:36;;;;;;;;;;;19.80;99.90;;;;;;5067288;28;20382;-83
2023/05/25 05:34:02;;;;;;;;;;;19.50;99.90;;;;;;5084943;28;19935;-85
2023/05/25 05:36:28;;;;;;;;;;;20.30;99.90;;;;;;5084086;28;19932;-84
2023/05/25 05:38:54;;;;;;;;;;;20.40;99.90;;;;;;5084774;28;20407;-84
2023/05/25 05:41:20;;;;;;;;;;;20.30;99.90;;;;;;5083736;28;19928;-85
2023/05/25 05:43:46;;;;;;;;;;;19.90;99.90;;;;;;5084809;28;19954;-82
2023/05/25 05:46:11;;;;;;;;;;;17.90;99.90;;;;;;5081795;28;19928;-83
2023/05/25 05:48:37;;;;;;;;;;;17.30;99.90;;;;;;5081767;28;19932;-82
2023/05/25 05:51:03;;;;;;;;;;;17.20;99.90;;;;;;5080722;28;19928;-84
2023/05/25 05:53:28;;;;;;;;;;;17.10;99.90;;;;;;5083682;28;20011;-84
2023/05/25 05:55:57;;;;;;;;;;;16.80;99.90;;;;;;5081854;28;20026;-84
2023/05/25 05:58:25;;;;;;;;;;;16.80;99.90;;;;;;5117274;27;20301;-83
2023/05/25 06:00:52;;;;;;;;;;;16.70;99.90;;;;;;5083994;28;19931;-83
2023/05/25 06:03:17;;;;;;;;;;;16.40;99.90;;;;;;5080557;28;20492;-82
2023/05/25 06:05:43;;;;;;;;;;;16.70;99.90;;;;;;5083471;28;19989;-82
2023/05/25 06:08:09;;;;;;;;;;;16.90;99.90;;;;;;5081534;28;19976;-83
2023/05/25 06:10:35;;;;;;;;;;;16.90;99.90;;;;;;5080181;28;20274;-84
2023/05/25 06:13:00;;;;;;;;;;;17.00;99.90;;;;;;5081759;28;19993;-84
2023/05/25 06:15:26;;;;;;;;;;;17.40;99.90;;;;;;5081277;28;19953;-82
2023/05/25 06:17:51;;;;;;;;;;;17.40;99.90;;;;;;5081482;28;20460;-85
2023/05/25 06:20:17;;;;;;;;;;;17.80;99.90;;;;;;5079470;28;19932;-86
2023/05/25 06:22:42;;;;;;;;;;;17.60;99.90;;;;;;5080988;28;20415;-84
2023/05/25 06:25:09;;;;;;;;;;;17.20;99.90;;;;;;5082699;28;19928;-86
2023/05/25 06:27:35;;;;;;;;;;;16.90;99.90;;;;;;5076659;28;19944;-83
2023/05/25 06:30:00;;;;;;;;;;;16.80;99.90;;;;;;5075330;28;20350;-84
2023/05/25 06:32:26;;;;;;;;;;;17.30;99.90;;;;;;5081249;28;19950;-83
2023/05/25 06:34:51;;;;;;;;;;;17.90;99.90;;;;;;5074547;28;19932;-82
2023/05/25 06:37:17;;;;;;;;;;;17.30;99.90;;;;;;5076625;28;19932;-84
2023/05/25 06:39:43;;;;;;;;;;;17.20;99.90;;;;;;5077503;28;20050;-85
2023/05/25 06:42:09;;;;;;;;;;;17.80;99.90;;;;;;5075122;28;19962;-87
2023/05/25 06:44:34;;;;;;;;;;;18.00;99.90;;;;;;5074561;28;20569;-84
2023/05/25 06:47:00;;;;;;;;;;;17.70;99.90;;;;;;5078061;28;19932;-81
2023/05/25 06:49:26;;;;;;;;;;;17.30;99.90;;;;;;5076627;28;19928;-83
2023/05/25 06:51:51;;;;;;;;;;;16.30;99.90;;;;;;5078233;28;19973;-85
2023/05/25 06:54:18;;;;;;;;;;;16.10;99.90;;;;;;5081594;28;19934;-83
2023/05/25 06:56:44;;;;;;;;;;;15.70;99.90;;;;;;5081708;28;20381;-82
2023/05/25 06:59:10;;;;;;;;;;;15.80;99.90;;;;;;5081593;28;20466;-84
2023/05/25 07:01:36;;;;;;;;;;;16.00;99.90;;;;;;5081469;28;19935;-83
2023/05/25 07:04:01;;;;;;;;;;;15.70;99.90;;;;;;5082711;28;19928;-83
2023/05/25 07:06:27;;;;;;;;;;;15.60;99.90;;;;;;5065357;28;19989;-84
2023/05/25 07:08:54;;;;;;;;;;;15.70;99.90;;;;;;5044807;28;19931;-86
2023/05/25 07:11:20;;;;;;;;;;;15.60;99.90;;;;;;5043031;28;19928;-83
2023/05/25 07:13:46;;;;;;;;;;;15.60;99.90;;;;;;5077155;28;20641;-84
2023/05/25 07:16:12;;;;;;;;;;;15.70;99.90;;;;;;5061701;28;19959;-84
2023/05/25 07:18:39;;;;;;;;;;;15.50;99.90;;;;;;5066388;28;19935;-87
2023/05/25 07:21:05;;;;;;;;;;;15.70;99.90;;;;;;5066428;28;19974;-84
2023/05/25 07:23:31;;;;;;;;;;;15.20;99.90;;;;;;5084168;28;19934;-84
2023/05/25 07:25:56;;;;;;;;;;;15.10;99.90;;;;;;5066215;28;19928;-84
2023/05/25 07:28:22;;;;;;;;;;;15.60;99.90;;;;;;5063855;28;19928;-82
2023/05/25 07:30:47;;;;;;;;;;;15.30;99.90;;;;;;5067029;28;20397;-85
2023/05/25 07:33:13;;;;;;;;;;;15.20;99.90;;;;;;5084253;28;20021;-83
2023/05/25 07:35:39;;;;;;;;;;;15.60;99.90;;;;;;5100316;28;19928;-84
2023/05/25 07:38:04;;;;;;;;;;;15.10;99.90;;;;;;5084798;28;19934;-87
2023/05/25 07:40:30;;;;;;;;;;;15.30;99.90;;;;;;5068421;28;20487;-84
2023/05/25 07:42:55;;;;;;;;;;;15.40;99.90;;;;;;5070921;28;19935;-84
2023/05/25 07:45:21;;;;;;;;;;;15.50;99.90;;;;;;5104436;28;19924;-85
2023/05/25 07:47:47;;;;;;;;;;;15.30;99.90;;;;;;5069805;28;19932;-84
2023/05/25 07:50:13;;;;;;;;;;;15.30;99.90;;;;;;5104260;28;19928;-83
2023/05/25 07:52:39;;;;;;;;;;;15.30;99.90;;;;;;5070451;28;19928;-85
2023/05/25 07:55:05;;;;;;;;;;;15.20;99.90;;;;;;5087733;28;19951;-88
2023/05/25 07:57:31;;;;;;;;;;;15.20;99.90;;;;;;5048776;28;19981;-84
2023/05/25 07:59:56;;;;;;;;;;;15.10;99.90;;;;;;5069994;28;19932;-83
2023/05/25 08:02:22;;;;;;;;;;;15.40;99.90;;;;;;5049284;28;20709;-84
2023/05/25 08:04:47;;;;;;;;;;;15.80;99.90;;;;;;5063801;28;19943;-84
2023/05/25 08:07:13;;;;;;;;;;;16.00;99.90;;;;;;5066738;28;19932;-87
2023/05/25 08:09:38;;;;;;;;;;;15.90;99.90;;;;;;5061428;28;19961;-85
2023/05/25 08:12:04;;;;;;;;;;;16.10;99.90;;;;;;5048949;28;20316;-85
2023/05/25 08:14:29;;;;;;;;;;;16.50;99.90;;;;;;5051737;28;20038;-85
2023/05/25 08:16:55;;;;;;;;;;;16.80;99.90;;;;;;5068617;28;19979;-85
2023/05/25 08:19:21;;;;;;;;;;;16.80;99.90;;;;;;5065886;28;19935;-85
2023/05/25 08:21:46;;;;;;;;;;;16.80;99.90;;;;;;5052530;28;19935;-85
2023/05/25 08:24:12;;;;;;;;;;;17.20;99.90;;;;;;5068284;28;19924;-84
2023/05/25 08:26:39;;;;;;;;;;;17.10;99.90;;;;;;5067679;28;19939;-84
2023/05/25 08:29:05;;;;;;;;;;;17.60;99.90;;;;;;5067382;28;19928;-83
2023/05/25 08:31:31;;;;;;;;;;;17.60;99.90;;;;;;5051215;28;19935;-86
2023/05/25 08:33:56;;;;;;;;;;;17.70;99.90;;;;;;5064746;28;19928;-86
2023/05/25 08:36:23;;;;;;;;;;;17.80;99.90;;;;;;5085321;28;19935;-84
2023/05/25 08:38:48;;;;;;;;;;;17.80;99.90;;;;;;5053194;28;19928;-86
2023/05/25 08:41:15;;;;;;;;;;;17.50;99.90;;;;;;5069239;28;19931;-87
2023/05/25 08:43:41;;;;;;;;;;;17.40;99.90;;;;;;5069464;28;19935;-84
2023/05/25 08:46:07;;;;;;;;;;;17.20;99.90;;;;;;5068459;28;19928;-85
2023/05/25 08:48:36;;;;;;;;;;;17.40;99.90;;;;;;5102387;28;19977;-87
2023/05/25 08:51:09;;;;;;;;;;;17.10;99.90;;;;;;5052484;28;20002;-85
2023/05/25 08:53:35;;;;;;;;;;;17.20;99.90;;;;;;5064996;28;19928;-84
2023/05/25 08:56:06;;;;;;;;;;;17.20;99.90;;;;;;5068458;28;19932;-84
2023/05/25 08:58:32;;;;;;;;;;;17.10;99.90;;;;;;5068742;28;20035;-85
2023/05/25 09:01:01;;;;;;;;;;;17.20;99.90;;;;;;5066299;28;19928;-86
2023/05/25 09:03:28;;;;;;;;;;;17.70;99.90;;;;;;5085986;28;19924;-86
2023/05/25 09:05:55;;;;;;;;;;;17.80;99.90;;;;;;5067756;28;19981;-83
2023/05/25 09:08:21;;;;;;;;;;;18.00;99.90;;;;;;5067669;28;20380;-84
2023/05/25 09:10:47;;;;;;;;;;;17.90;99.90;;;;;;5068890;28;19935;-83
2023/05/25 09:13:12;;;;;;;;;;;17.80;99.90;;;;;;5067821;28;19950;-85
2023/05/25 09:15:38;;;;;;;;;;;17.60;99.90;;;;;;5099963;28;20377;-82
2023/05/25 09:18:03;;;;;;;;;;;17.40;99.90;;;;;;5064936;28;19924;-82
2023/05/25 09:20:32;;;;;;;;;;;17.60;99.90;;;;;;5072323;28;19931;-86
2023/05/25 09:22:58;;;;;;;;;;;17.10;99.90;;;;;;5067302;28;20026;-84
2023/05/25 09:25:26;;;;;;;;;;;17.10;99.90;;;;;;5067960;28;19931;-86
2023/05/25 09:27:52;;;;;;;;;;;17.20;99.90;;;;;;5065604;28;20309;-87
2023/05/25 09:30:17;;;;;;;;;;;17.40;99.90;;;;;;5059362;28;19928;-84
2023/05/25 09:32:43;;;;;;;;;;;17.30;99.90;;;;;;5050982;28;20033;-83
2023/05/25 09:35:09;;;;;;;;;;;17.30;99.90;;;;;;5067867;28;19928;-83
2023/05/25 09:37:36;;;;;;;;;;;17.10;99.90;;;;;;5070844;28;19924;-85
2023/05/25 09:40:02;;;;;;;;;;;17.50;99.90;;;;;;5088002;28;19927;-83
2023/05/25 09:42:28;;;;;;;;;;;17.70;99.90;;;;;;5122499;27;19939;-85
2023/05/25 09:44:53;;;;;;;;;;;17.80;99.90;;;;;;5086619;28;19928;-83
2023/05/25 09:47:19;;;;;;;;;;;17.80;99.90;;;;;;5086712;28;19977;-85
2023/05/25 09:49:46;;;;;;;;;;;18.30;99.90;;;;;;5122171;27;19924;-83
2023/05/25 09:52:12;;;;;;;;;;;19.40;99.90;;;;;;5088502;28;19923;-87
2023/05/25 09:54:38;;;;;;;;;;;19.20;99.90;;;;;;5087009;28;19939;-83
2023/05/25 09:57:04;;;;;;;;;;;18.00;99.90;;;;;;5086813;28;19928;-86
2023/05/25 09:59:30;;;;;;;;;;;17.80;99.90;;;;;;5086315;28;19924;-83
2023/05/25 10:01:56;;;;;;;;;;;17.60;99.90;;;;;;5087815;28;19949;-81
2023/05/25 10:04:22;;;;;;;;;;;17.80;99.90;;;;;;5087016;28;20292;-83
2023/05/25 10:06:50;;;;;;;;;;;17.40;99.90;;;;;;5085543;28;19928;-85
2023/05/25 10:09:19;;;;;;;;;;;17.40;99.90;;;;;;5087481;28;19924;-82
2023/05/25 10:11:45;;;;;;;;;;;17.20;99.90;;;;;;5086411;28;19932;-85
2023/05/25 10:14:13;;;;;;;;;;;18.00;99.90;;;;;;5087305;28;20438;-83
2023/05/25 10:16:40;;;;;;;;;;;18.70;99.90;;;;;;5083957;28;20288;-88
2023/05/25 10:19:10;;;;;;;;;;;18.40;99.90;;;;;;5070325;28;20649;-88
2023/05/25 10:21:36;;;;;;;;;;;18.10;99.90;;;;;;5070152;28;19935;-86
2023/05/25 10:24:08;;;;;;;;;;;17.70;99.90;;;;;;5103070;28;19980;-83
2023/05/25 10:26:39;;;;;;;;;;;17.80;99.90;;;;;;5085822;28;20052;-85
2023/05/25 10:29:05;;;;;;;;;;;17.30;99.90;;;;;;5085166;28;19928;-85
2023/05/25 10:31:33;;;;;;;;;;;18.60;99.90;;;;;;5087204;28;19935;-83
2023/05/25 10:34:00;;;;;;;;;;;19.00;99.90;;;;;;5086891;28;19935;-84
2023/05/25 10:36:26;;;;;;;;;;;19.90;99.90;;;;;;5087021;28;20022;-90
2023/05/25 10:38:51;;;;;;;;;;;19.80;99.90;;;;;;5102584;28;20253;-86
2023/05/25 10:41:19;;;;;;;;;;;19.80;99.90;;;;;;5087816;28;20703;-85
2023/05/25 10:43:44;;;;;;;;;;;20.10;99.90;;;;;;5119268;28;20274;-87
2023/05/25 10:46:11;;;;;;;;;;;20.20;99.90;;;;;;5104623;28;19938;-84
2023/05/25 10:48:37;;;;;;;;;;;20.00;99.90;;;;;;5070098;28;19928;-85
2023/05/25 10:51:03;;;;;;;;;;;20.50;99.90;;;;;;5086557;28;19928;-85
2023/05/25 10:53:28;;;;;;;;;;;20.40;99.90;;;;;;5087166;28;19984;-85
2023/05/25 10:55:57;;;;;;;;;;;20.70;99.90;;;;;;5086622;28;20514;-87
2023/05/25 10:58:25;;;;;;;;;;;20.20;99.90;;;;;;5085911;28;19928;-89
2023/05/25 11:01:00;;;;;;;;;;;19.60;99.90;;;;;;5085685;28;19928;-88
2023/05/25 11:03:47;;;;;;;;;;;18.40;99.90;;;;;;5087910;28;19932;-86
2023/05/25 11:06:16;;;;;;;;;;;19.20;99.90;;;;;;5102347;28;19977;-87
2023/05/25 11:08:48;;;;;;;;;;;18.90;99.90;;;;;;5087914;28;20010;-86
2023/05/25 11:11:14;;;;;;;;;;;17.90;99.90;;;;;;5098205;28;20322;-85
2023/05/25 11:13:44;;;;;;;;;;;17.40;99.90;;;;;;5089249;28;19938;-86
2023/05/25 11:16:20;;;;;;;;;;;18.40;99.90;;;;;;5090839;28;19927;-84
2023/05/25 11:18:58;;;;;;;;;;;18.40;99.90;;;;;;5108698;28;19934;-82
2023/05/25 11:21:29;;;;;;;;;;;18.40;99.90;;;;;;5090467;28;20289;-84
2023/05/25 11:24:01;;;;;;;;;;;19.60;99.90;;;;;;5090347;28;19928;-82
2023/05/25 11:26:28;;;;;;;;;;;20.10;99.90;;;;;;5090294;28;19924;-83
2023/05/25 11:28:54;;;;;;;;;;;19.10;99.90;;;;;;5090081;28;19923;-85
2023/05/25 11:31:32;;;;;;;;;;;19.40;99.90;;;;;;5091660;28;19984;-87
2023/05/25 11:33:59;;;;;;;;;;;19.30;99.90;;;;;;5087250;28;19932;-87
2023/05/25 11:36:26;;;;;;;;;;;18.20;99.90;;;;;;5090764;28;19977;-84
2023/05/25 11:38:52;;;;;;;;;;;18.60;99.90;;;;;;5090825;28;19932;-84
2023/05/25 11:41:22;;;;;;;;;;;19.20;99.90;;;;;;5090178;28;19931;-82
2023/05/25 11:43:48;;;;;;;;;;;20.10;99.90;;;;;;5088215;28;20517;-83
2023/05/25 11:46:14;;;;;;;;;;;19.90;99.90;;;;;;5090290;28;19949;-86
2023/05/25 11:48:52;;;;;;;;;;;19.60;99.90;;;;;;5070519;28;19928;-84
2023/05/25 11:51:23;;;;;;;;;;;19.00;99.90;;;;;;5089610;28;19928;-84
2023/05/25 11:53:48;;;;;;;;;;;19.90;99.90;;;;;;5091104;28;19938;-83
2023/05/25 11:56:15;;;;;;;;;;;19.30;99.90;;;;;;5087125;28;19951;-85
2023/05/25 11:58:43;;;;;;;;;;;19.90;99.90;;;;;;5103183;28;19928;-82
2023/05/25 12:01:18;;;;;;;;;;;20.50;99.90;;;;;;5089414;28;19935;-85
2023/05/25 12:03:45;;;;;;;;;;;20.90;99.90;;;;;;5088446;28;20031;-84
2023/05/25 12:06:27;;;;;;;;;;;20.10;99.90;;;;;;5088380;28;19928;-85
2023/05/25 12:08:53;;;;;;;;;;;20.50;99.90;;;;;;5089104;28;19941;-89
2023/05/25 12:11:32;;;;;;;;;;;20.50;99.90;;;;;;5071250;28;20611;-85
2023/05/25 12:13:58;;;;;;;;;;;20.30;99.90;;;;;;5086527;28;19928;-84
2023/05/25 12:16:24;;;;;;;;;;;20.90;99.90;;;;;;5088320;28;20646;-83
2023/05/25 12:18:51;;;;;;;;;;;20.40;99.90;;;;;;5106654;28;20345;-85
2023/05/25 12:21:17;;;;;;;;;;;20.80;99.90;;;;;;5087443;28;20496;-84
2023/05/25 12:23:43;;;;;;;;;;;21.30;99.90;;;;;;5088697;28;20014;-88
2023/05/25 12:26:10;;;;;;;;;;;20.70;99.90;;;;;;5088033;28;20006;-85
2023/05/25 12:28:36;;;;;;;;;;;21.40;99.90;;;;;;5069674;28;19939;-90
2023/05/25 12:31:20;;;;;;;;;;;20.90;99.90;;;;;;5090261;28;19928;-85
2023/05/25 12:33:46;;;;;;;;;;;20.90;99.90;;;;;;5089725;28;19928;-83
2023/05/25 12:36:12;;;;;;;;;;;21.30;99.90;;;;;;5089598;28;19935;-84
2023/05/25 12:38:37;;;;;;;;;;;21.70;99.90;;;;;;5089534;28;19981;-88
2023/05/25 12:41:03;;;;;;;;;;;21.20;99.90;;;;;;5089615;28;19924;-84
2023/05/25 12:43:41;;;;;;;;;;;20.50;99.90;;;;;;5089807;28;19932;-91
2023/05/25 12:46:07;;;;;;;;;;;21.30;99.90;;;;;;5072401;28;19971;-85
2023/05/25 12:48:33;;;;;;;;;;;20.80;99.90;;;;;;5088164;28;19935;-88
2023/05/25 12:50:58;;;;;;;;;;;20.90;99.90;;;;;;5089220;28;20022;-84
2023/05/25 12:53:30;;;;;;;;;;;21.70;99.90;;;;;;5089135;28;19986;-86
2023/05/25 12:56:02;;;;;;;;;;;21.60;99.90;;;;;;5090125;28;20171;-86
2023/05/25 12:58:28;;;;;;;;;;;20.60;99.90;;;;;;5087358;28;20004;-85
2023/05/25 13:00:53;;;;;;;;;;;21.20;99.90;;;;;;5089326;28;19931;-85
2023/05/25 13:03:19;;;;;;;;;;;21.10;99.90;;;;;;5089826;28;19934;-89
2023/05/25 13:05:45;;;;;;;;;;;21.40;99.90;;;;;;5087025;28;19930;-84
2023/05/25 13:08:11;;;;;;;;;;;20.80;99.90;;;;;;5089993;28;19928;-85
2023/05/25 13:10:36;;;;;;;;;;;20.80;99.90;;;;;;5089518;28;19967;-86
2023/05/25 13:13:03;;;;;;;;;;;21.10;99.90;;;;;;5089270;28;19977;-86
2023/05/25 13:15:28;;;;;;;;;;;21.00;99.90;;;;;;5089013;28;19980;-87
2023/05/25 13:17:56;;;;;;;;;;;21.00;99.90;;;;;;5071305;28;19923;-85
2023/05/25 13:20:23;;;;;;;;;;;21.70;99.90;;;;;;5089352;28;19946;-87
2023/05/25 13:22:49;;;;;;;;;;;21.40;99.90;;;;;;5090603;28;20027;-84
2023/05/25 13:25:15;;;;;;;;;;;20.70;99.90;;;;;;5087214;28;19939;-86
2023/05/25 13:27:48;;;;;;;;;;;20.20;99.90;;;;;;5086963;28;19928;-86
2023/05/25 13:30:14;;;;;;;;;;;19.90;99.90;;;;;;5084842;28;20015;-87
2023/05/25 13:32:42;;;;;;;;;;;20.10;99.90;;;;;;5089104;28;20353;-85
2023/05/25 13:35:08;;;;;;;;;;;19.70;99.90;;;;;;5122066;27;20400;-86
2023/05/25 13:37:33;;;;;;;;;;;20.50;99.90;;;;;;5085848;28;20288;-92
2023/05/25 13:39:59;;;;;;;;;;;20.90;99.90;;;;;;5070193;28;19924;-88
2023/05/25 13:42:25;;;;;;;;;;;20.70;99.90;;;;;;5069082;28;19936;-86
2023/05/25 13:44:51;;;;;;;;;;;20.70;99.90;;;;;;5086227;28;19967;-85
2023/05/25 13:47:17;;;;;;;;;;;20.40;99.90;;;;;;5085948;28;19958;-85
2023/05/25 13:49:43;;;;;;;;;;;20.70;99.90;;;;;;5085668;28;19946;-85
2023/05/25 13:52:08;;;;;;;;;;;20.90;99.90;;;;;;5086560;28;19935;-85
2023/05/25 13:54:34;;;;;;;;;;;21.00;99.90;;;;;;5120412;27;20005;-85
2023/05/25 13:56:59;;;;;;;;;;;20.50;99.90;;;;;;5069175;28;19927;-86
2023/05/25 13:59:25;;;;;;;;;;;20.40;99.90;;;;;;5086556;28;19931;-84
2023/05/25 14:01:50;;;;;;;;;;;20.90;99.90;;;;;;5086267;28;19924;-86
2023/05/25 14:04:16;;;;;;;;;;;20.50;99.90;;;;;;5087761;28;19924;-86
2023/05/25 14:06:43;;;;;;;;;;;21.20;99.90;;;;;;5086487;28;21593;-85
2023/05/25 14:09:09;;;;;;;;;;;20.30;99.90;;;;;;5086076;28;19967;-84
2023/05/25 14:11:38;;;;;;;;;;;20.80;99.90;;;;;;5086472;28;19950;-85
2023/05/25 14:14:07;;;;;;;;;;;20.90;99.90;;;;;;5071197;28;19927;-85
2023/05/25 14:16:36;;;;;;;;;;;20.20;99.90;;;;;;5087100;28;19924;-86
2023/05/25 14:19:01;;;;;;;;;;;21.10;99.90;;;;;;5085319;28;19932;-83